Terminal Aerodrome Forecast
Issued by NWS

Home | Current Version | Previous Version | Text Only | Print | Product List | Glossary On
Versions: 1 2 3 4 5 6 7 8 9 10 11 12 13 14
000
FTUS45 KABQ 032300
TAFFMN
TAF
KFMN 032330Z 0400/0424 25011KT P6SM SCT070 BKN120
     FM040300 20007KT P6SM VCSH BKN090
     FM040900 08005KT P6SM -SHRA BKN050
     FM041300 VRB05KT P6SM BKN070
     FM041700 23010KT P6SM VCTS BKN060CB=

USA.gov is the U.S. government's official web portal to all federal, state and local government web resources and services.